Terminal Aerodrome Forecast
Issued by NWS

Current Version | Previous Version | Text Only | Print | Product List | Glossary On
Versions: 1 2 3 4 5 6 7 8 9 10 11 12 13 14
000
FTUS44 KLIX 241130
TAFMCB
TAF
KMCB 241130Z 2412/2512 VRB04KT P6SM SKC
      TEMPO 2412/2413 4SM BR
     FM241800 VRB04KT P6SM VCTS BKN035CB
     FM250000 16004KT P6SM BKN035=

USA.gov is the U.S. government's official web portal to all federal, state and local government web resources and services.